createdAt,value
2018-12-15T00:00:52.869Z,102833.56
2018-12-15T00:03:56.081Z,102830.34
2018-12-15T00:06:59.415Z,102824.58
2018-12-15T00:10:02.615Z,102831.13
2018-12-15T00:13:05.820Z,102824.73
2018-12-15T00:16:09.123Z,102828.16
2018-12-15T00:19:12.333Z,102819.93
2018-12-15T00:22:15.499Z,102816.00
2018-12-15T00:25:18.708Z,102811.78
2018-12-15T00:28:21.912Z,102812.72
2018-12-15T00:31:25.106Z,102821.70
2018-12-15T00:34:28.325Z,102825.64
2018-12-15T00:37:31.589Z,102826.48
2018-12-15T00:40:34.956Z,102824.62
2018-12-15T00:43:38.187Z,102826.34
2018-12-15T00:46:42.865Z,102827.96
2018-12-15T00:49:46.532Z,102827.45
2018-12-15T00:52:50.194Z,102827.86
2018-12-15T00:55:53.461Z,102827.80
2018-12-15T00:58:56.839Z,102831.19
2018-12-15T01:02:00.195Z,102837.75
2018-12-15T01:05:03.532Z,102839.68
2018-12-15T01:08:07.718Z,102840.73
2018-12-15T01:11:11.286Z,102839.02
2018-12-15T01:14:14.552Z,102843.09
2018-12-15T01:17:20.710Z,102849.41
2018-12-15T01:20:24.174Z,102857.58
2018-12-15T01:23:27.498Z,102862.88
2018-12-15T01:26:30.675Z,102863.73
2018-12-15T01:29:34.027Z,102865.31
2018-12-15T01:32:37.333Z,102867.11
2018-12-15T01:35:40.523Z,102869.59
2018-12-15T01:38:43.756Z,102870.09
2018-12-15T01:41:47.015Z,102868.78
2018-12-15T01:44:50.245Z,102869.95
2018-12-15T01:47:53.516Z,102871.84
2018-12-15T01:50:56.772Z,102873.56
2018-12-15T01:54:00.121Z,102881.84
2018-12-15T01:57:03.436Z,102884.88
2018-12-15T02:00:08.172Z,102878.41
2018-12-15T02:03:11.353Z,102877.09
2018-12-15T02:06:14.545Z,102882.69
2018-12-15T02:09:17.726Z,102874.47
2018-12-15T02:12:21.015Z,102880.67
2018-12-15T02:15:24.315Z,102877.77
2018-12-15T02:18:27.521Z,102879.62
2018-12-15T02:21:30.727Z,102878.88
2018-12-15T02:24:33.986Z,102878.26
2018-12-15T02:27:37.225Z,102878.42
2018-12-15T02:30:40.531Z,102883.66
2018-12-15T02:33:43.801Z,102883.16
2018-12-15T02:36:47.237Z,102884.52
2018-12-15T02:39:50.531Z,102880.33
2018-12-15T02:42:53.703Z,102884.47
2018-12-15T02:45:56.993Z,102878.26
2018-12-15T02:49:00.252Z,102877.45
2018-12-15T02:52:03.586Z,102878.91
2018-12-15T02:55:06.978Z,102883.05
2018-12-15T02:58:10.412Z,102890.91
2018-12-15T03:01:14.801Z,102888.60
2018-12-15T03:04:18.111Z,102892.53
2018-12-15T03:07:22.461Z,102891.23
2018-12-15T03:10:25.677Z,102894.55
2018-12-15T03:13:28.924Z,102889.45
2018-12-15T03:16:32.312Z,102890.50
2018-12-15T03:19:35.616Z,102886.48
2018-12-15T03:22:38.835Z,102889.74
2018-12-15T03:25:42.076Z,102887.58
2018-12-15T03:28:45.391Z,102879.72
2018-12-15T03:31:48.546Z,102879.77
2018-12-15T03:34:51.715Z,102884.05
2018-12-15T03:37:54.925Z,102881.32
2018-12-15T03:40:58.505Z,102880.33
2018-12-15T03:44:01.704Z,102885.37
2018-12-15T03:47:04.939Z,102882.98
2018-12-15T03:50:08.275Z,102884.20
2018-12-15T03:53:12.728Z,102886.30
2018-12-15T03:56:15.899Z,102884.67
2018-12-15T03:59:20.481Z,102880.91
2018-12-15T04:02:23.696Z,102891.39
2018-12-15T04:05:26.995Z,102887.96
2018-12-15T04:08:30.237Z,102892.01
2018-12-15T04:11:33.450Z,102892.74
2018-12-15T04:14:36.649Z,102895.39
2018-12-15T04:17:39.957Z,102896.50
2018-12-15T04:20:43.172Z,102891.81
2018-12-15T04:23:48.029Z,102888.69
2018-12-15T04:26:52.625Z,102885.80
2018-12-15T04:29:55.913Z,102888.36
2018-12-15T04:32:59.189Z,102889.20
2018-12-15T04:36:14.542Z,102884.72
2018-12-15T04:39:17.859Z,102888.31
2018-12-15T04:42:21.285Z,102889.47
2018-12-15T04:45:24.485Z,102889.00
2018-12-15T04:48:27.723Z,102887.81
2018-12-15T04:51:32.389Z,102896.43
2018-12-15T04:54:36.013Z,102900.16
2018-12-15T04:57:39.181Z,102900.36
2018-12-15T05:00:42.526Z,102897.69
2018-12-15T05:03:45.720Z,102898.84
2018-12-15T05:06:49.009Z,102895.14
2018-12-15T05:09:52.232Z,102895.26
2018-12-15T05:12:55.409Z,102892.03
2018-12-15T05:15:58.597Z,102890.94
2018-12-15T05:19:01.760Z,102890.58
2018-12-15T05:22:05.701Z,102884.37
2018-12-15T05:25:09.046Z,102887.95
2018-12-15T05:28:12.382Z,102879.88
2018-12-15T05:31:15.940Z,102884.92
2018-12-15T05:34:19.218Z,102889.27
2018-12-15T05:37:22.390Z,102892.62
2018-12-15T05:40:25.594Z,102893.96
2018-12-15T05:43:28.834Z,102899.55
2018-12-15T05:46:32.018Z,102901.42
2018-12-15T05:49:36.626Z,102912.72
2018-12-15T05:52:39.801Z,102906.30
2018-12-15T05:55:43.012Z,102904.23
2018-12-15T05:58:46.419Z,102916.44
2018-12-15T06:01:49.614Z,102906.86
2018-12-15T06:04:53.890Z,102912.86
2018-12-15T06:07:57.145Z,102911.95
2018-12-15T06:11:00.347Z,102914.11
2018-12-15T06:14:04.235Z,102910.52
2018-12-15T06:17:07.587Z,102907.75
2018-12-15T06:20:10.773Z,102899.42
2018-12-15T06:23:13.972Z,102905.13
2018-12-15T06:26:17.145Z,102906.59
2018-12-15T06:29:20.448Z,102912.02
2018-12-15T06:32:23.621Z,102908.25
2018-12-15T06:35:26.904Z,102906.30
2018-12-15T06:38:30.295Z,102903.56
2018-12-15T06:41:33.589Z,102902.17
2018-12-15T06:44:36.794Z,102897.14
2018-12-15T06:47:40.073Z,102898.17
2018-12-15T06:50:43.278Z,102891.91
2018-12-15T06:53:46.573Z,102889.84
2018-12-15T06:56:49.827Z,102888.09
2018-12-15T06:59:53.012Z,102886.52
2018-12-15T07:02:56.246Z,102890.59
2018-12-15T07:05:59.457Z,102891.41
2018-12-15T07:09:02.649Z,102892.72
2018-12-15T07:12:05.850Z,102883.75
2018-12-15T07:15:09.225Z,102887.34
2018-12-15T07:18:12.477Z,102877.14
2018-12-15T07:21:15.635Z,102874.23
2018-12-15T07:24:19.295Z,102877.47
2018-12-15T07:27:22.498Z,102891.19
2018-12-15T07:30:25.845Z,102886.84
2018-12-15T07:33:29.035Z,102895.22
2018-12-15T07:36:32.309Z,102896.31
2018-12-15T07:39:35.487Z,102895.88
2018-12-15T07:42:38.706Z,102891.74
2018-12-15T07:45:41.892Z,102902.38
2018-12-15T07:48:51.391Z,102909.13
2018-12-15T07:51:51.557Z,102904.59
2018-12-15T07:54:54.747Z,102902.38
2018-12-15T07:57:57.944Z,102905.22
2018-12-15T08:01:01.199Z,102901.81
2018-12-15T08:04:04.567Z,102900.30
2018-12-15T08:07:07.855Z,102897.53
2018-12-15T08:10:11.202Z,102900.16
2018-12-15T08:13:32.579Z,102906.36
2018-12-15T08:16:35.844Z,102907.91
2018-12-15T08:19:39.824Z,102903.22
2018-12-15T08:22:43.189Z,102901.41
2018-12-15T08:25:46.810Z,102905.63
2018-12-15T08:28:50.128Z,102914.05
2018-12-15T08:31:54.846Z,102908.71
2018-12-15T08:34:58.022Z,102913.95
2018-12-15T08:38:01.815Z,102915.48
2018-12-15T08:41:05.123Z,102910.30
2018-12-15T08:44:08.472Z,102913.82
2018-12-15T08:47:11.718Z,102920.30
2018-12-15T08:50:15.215Z,102919.42
2018-12-15T08:53:18.608Z,102926.09
2018-12-15T08:56:21.905Z,102926.36
2018-12-15T08:59:25.088Z,102926.71
2018-12-15T09:02:28.381Z,102927.53
2018-12-15T09:05:31.574Z,102929.25
2018-12-15T09:08:34.903Z,102924.70
2018-12-15T09:11:38.468Z,102927.25
2018-12-15T09:14:41.780Z,102926.17
2018-12-15T09:17:46.693Z,102932.94
2018-12-15T09:20:49.969Z,102932.44
2018-12-15T09:23:53.362Z,102930.78
2018-12-15T09:26:56.625Z,102937.12
2018-12-15T09:29:59.839Z,102933.75
2018-12-15T09:33:03.027Z,102935.41
2018-12-15T09:36:06.410Z,102933.95
2018-12-15T09:39:09.622Z,102932.72
2018-12-15T09:42:12.898Z,102922.84
2018-12-15T09:45:16.092Z,102925.06
2018-12-15T09:48:19.276Z,102924.57
2018-12-15T09:51:22.477Z,102923.11
2018-12-15T09:54:25.716Z,102922.62
2018-12-15T09:57:29.367Z,102925.94
2018-12-15T10:00:32.569Z,102923.17
2018-12-15T10:03:35.761Z,102925.44
2018-12-15T10:06:38.922Z,102927.19
2018-12-15T10:09:42.093Z,102926.41
2018-12-15T10:12:45.324Z,102918.73
2018-12-15T10:15:48.482Z,102916.81
2018-12-15T10:18:52.064Z,102919.09
2018-12-15T10:21:55.450Z,102913.23
2018-12-15T10:24:59.790Z,102907.72
2018-12-15T10:28:02.943Z,102908.13
2018-12-15T10:31:11.761Z,102899.81
2018-12-15T10:34:15.012Z,102899.05
2018-12-15T10:37:18.311Z,102889.83
2018-12-15T10:40:22.143Z,102884.38
2018-12-15T10:43:25.313Z,102874.03
2018-12-15T10:46:28.554Z,102874.78
2018-12-15T10:49:31.864Z,102865.04
2018-12-15T10:52:35.111Z,102858.23
2018-12-15T10:55:38.346Z,102851.41
2018-12-15T10:58:41.530Z,102853.74
2018-12-15T11:01:44.684Z,102847.23
2018-12-15T11:04:48.824Z,102848.70
2018-12-15T11:07:52.456Z,102848.80
2018-12-15T11:10:55.692Z,102844.77
2018-12-15T11:13:58.868Z,102837.50
2018-12-15T11:17:02.377Z,102831.73
2018-12-15T11:20:06.009Z,102833.66
2018-12-15T11:23:09.267Z,102834.01
2018-12-15T11:26:12.448Z,102826.38
2018-12-15T11:29:15.689Z,102828.27
2018-12-15T11:32:18.945Z,102824.33
2018-12-15T11:35:22.206Z,102824.38
2018-12-15T11:38:25.491Z,102818.28
2018-12-15T11:41:28.657Z,102811.86
2018-12-15T11:44:31.845Z,102814.84
2018-12-15T11:47:36.657Z,102812.68
2018-12-15T11:50:39.845Z,102808.89
2018-12-15T11:53:43.083Z,102796.97
2018-12-15T11:56:46.349Z,102791.23
2018-12-15T11:59:49.558Z,102788.91
2018-12-15T12:02:52.820Z,102791.12
2018-12-15T12:05:55.986Z,102784.02
2018-12-15T12:08:59.248Z,102774.97
2018-12-15T12:12:02.616Z,102772.20
2018-12-15T12:15:06.497Z,102777.81
2018-12-15T12:18:09.668Z,102773.41
2018-12-15T12:21:12.928Z,102772.32
2018-12-15T12:24:16.114Z,102765.86
2018-12-15T12:27:19.314Z,102770.02
2018-12-15T12:30:22.569Z,102766.22
2018-12-15T12:33:25.836Z,102767.88
2018-12-15T12:36:29.043Z,102768.53
2018-12-15T12:39:32.231Z,102771.20
2018-12-15T12:42:35.934Z,102767.05
2018-12-15T12:45:39.138Z,102768.94
2018-12-15T12:48:42.315Z,102771.56
2018-12-15T12:51:45.553Z,102766.63
2018-12-15T12:54:48.734Z,102768.46
2018-12-15T12:57:51.898Z,102760.44
2018-12-15T13:00:55.048Z,102751.71
2018-12-15T13:03:58.312Z,102757.62
2018-12-15T13:07:01.486Z,102758.75
2018-12-15T13:10:04.905Z,102751.64
2018-12-15T13:13:08.088Z,102745.28
2018-12-15T13:16:11.343Z,102748.48
2018-12-15T13:19:15.842Z,102742.47
2018-12-15T13:22:19.162Z,102744.79
2018-12-15T13:25:22.428Z,102738.36
2018-12-15T13:28:25.722Z,102730.58
2018-12-15T13:31:29.089Z,102727.13
2018-12-15T13:34:32.386Z,102727.20
2018-12-15T13:37:35.743Z,102723.36
2018-12-15T13:40:38.930Z,102728.20
2018-12-15T13:43:42.084Z,102727.44
2018-12-15T13:46:45.299Z,102731.37
2018-12-15T13:49:48.566Z,102725.10
2018-12-15T13:52:51.887Z,102725.05
2018-12-15T13:55:55.154Z,102721.39
2018-12-15T13:58:58.344Z,102714.37
2018-12-15T14:02:01.529Z,102713.23
2018-12-15T14:05:04.849Z,102715.31
2018-12-15T14:08:08.025Z,102713.70
2018-12-15T14:11:11.214Z,102706.12
2018-12-15T14:14:15.580Z,102700.97
2018-12-15T14:17:18.821Z,102703.97
2018-12-15T14:20:22.050Z,102700.16
2018-12-15T14:23:25.497Z,102695.63
2018-12-15T14:26:28.831Z,102695.34
2018-12-15T14:29:33.852Z,102690.64
2018-12-15T14:32:37.162Z,102687.28
2018-12-15T14:35:40.352Z,102683.60
2018-12-15T14:38:44.670Z,102675.61
2018-12-15T14:41:47.817Z,102677.05
2018-12-15T14:44:51.061Z,102670.25
2018-12-15T14:47:54.719Z,102674.28
2018-12-15T14:50:57.912Z,102669.41
2018-12-15T14:54:01.168Z,102668.98
2018-12-15T14:57:04.495Z,102668.98
2018-12-15T15:00:09.482Z,102661.22
2018-12-15T15:03:14.149Z,102655.52
2018-12-15T15:06:17.362Z,102646.27
2018-12-15T15:09:20.670Z,102653.19
2018-12-15T15:12:24.557Z,102644.77
2018-12-15T15:15:27.729Z,102651.16
2018-12-15T15:18:30.886Z,102652.28
2018-12-15T15:21:34.063Z,102648.21
2018-12-15T15:24:37.327Z,102642.20
2018-12-15T15:27:40.719Z,102634.11
2018-12-15T15:30:43.911Z,102627.61
2018-12-15T15:33:47.135Z,102624.98
2018-12-15T15:36:50.401Z,102621.72
2018-12-15T15:39:53.674Z,102618.14
2018-12-15T15:42:57.711Z,102619.22
2018-12-15T15:46:00.881Z,102618.38
2018-12-15T15:49:04.414Z,102610.92
2018-12-15T15:52:07.578Z,102608.89
2018-12-15T15:55:10.901Z,102599.66
2018-12-15T15:58:14.094Z,102601.68
2018-12-15T16:01:17.330Z,102597.16
2018-12-15T16:04:21.047Z,102602.09
2018-12-15T16:07:24.269Z,102593.36
2018-12-15T16:10:27.431Z,102589.16
2018-12-15T16:13:30.694Z,102582.37
2018-12-15T16:16:36.024Z,102577.25
2018-12-15T16:19:39.432Z,102570.47
2018-12-15T16:22:42.688Z,102576.52
2018-12-15T16:25:45.888Z,102564.79
2018-12-15T16:28:49.146Z,102560.75
2018-12-15T16:31:52.322Z,102554.12
2018-12-15T16:34:55.595Z,102559.15
2018-12-15T16:37:58.764Z,102550.79
2018-12-15T16:41:01.972Z,102550.19
2018-12-15T16:44:05.338Z,102535.78
2018-12-15T16:47:08.647Z,102532.45
2018-12-15T16:50:14.769Z,102537.48
2018-12-15T16:53:17.946Z,102542.31
2018-12-15T16:56:21.263Z,102542.64
2018-12-15T16:59:24.437Z,102538.86
2018-12-15T17:02:27.607Z,102541.84
2018-12-15T17:05:30.856Z,102546.22
2018-12-15T17:08:35.239Z,102541.76
2018-12-15T17:11:38.654Z,102538.53
2018-12-15T17:14:41.801Z,102544.19
2018-12-15T17:17:45.022Z,102546.34
2018-12-15T17:20:48.509Z,102534.95
2018-12-15T17:23:51.683Z,102531.46
2018-12-15T17:26:54.857Z,102525.38
2018-12-15T17:29:58.051Z,102528.64
2018-12-15T17:33:01.330Z,102530.92
2018-12-15T17:36:04.595Z,102528.04
2018-12-15T17:39:08.702Z,102522.78
2018-12-15T17:42:11.893Z,102515.85
2018-12-15T17:45:15.127Z,102519.87
2018-12-15T17:48:18.327Z,102512.06
2018-12-15T17:51:21.495Z,102514.83
2018-12-15T17:54:24.816Z,102502.64
2018-12-15T17:57:27.991Z,102494.60
2018-12-15T18:00:31.334Z,102480.63
2018-12-15T18:03:34.555Z,102486.05
2018-12-15T18:06:37.842Z,102484.62
2018-12-15T18:09:41.192Z,102476.58
2018-12-15T18:12:44.479Z,102473.35
2018-12-15T18:15:47.785Z,102475.26
2018-12-15T18:18:51.253Z,102463.91
2018-12-15T18:21:54.479Z,102459.91
2018-12-15T18:24:57.682Z,102452.88
2018-12-15T18:28:00.875Z,102438.41
2018-12-15T18:31:04.106Z,102431.50
2018-12-15T18:34:07.377Z,102430.89
2018-12-15T18:37:10.628Z,102428.53
2018-12-15T18:40:13.853Z,102421.83
2018-12-15T18:43:17.021Z,102422.75
2018-12-15T18:46:20.184Z,102432.40
2018-12-15T18:49:23.364Z,102423.13
2018-12-15T18:52:26.528Z,102424.44
2018-12-15T18:55:29.820Z,102410.73
2018-12-15T18:58:33.215Z,102398.97
2018-12-15T19:01:36.394Z,102408.91
2018-12-15T19:04:39.570Z,102391.12
2018-12-15T19:07:42.744Z,102383.02
2018-12-15T19:10:46.089Z,102387.88
2018-12-15T19:13:49.515Z,102381.11
2018-12-15T19:16:52.853Z,102375.62
2018-12-15T19:19:56.040Z,102373.00
2018-12-15T19:22:59.242Z,102372.54
2018-12-15T19:26:02.468Z,102370.56
2018-12-15T19:29:05.657Z,102371.38
2018-12-15T19:32:08.986Z,102372.77
2018-12-15T19:35:12.243Z,102366.98
2018-12-15T19:38:15.462Z,102355.17
2018-12-15T19:41:18.654Z,102352.36
2018-12-15T19:44:21.926Z,102347.05
2018-12-15T19:47:25.214Z,102347.25
2018-12-15T19:50:29.422Z,102347.89
2018-12-15T19:53:32.650Z,102339.91
2018-12-15T19:56:37.110Z,102333.34
2018-12-15T19:59:40.299Z,102329.20
2018-12-15T20:02:43.695Z,102324.78
2018-12-15T20:05:47.106Z,102319.06
2018-12-15T20:08:50.915Z,102321.13
2018-12-15T20:11:54.209Z,102325.45
2018-12-15T20:14:57.551Z,102319.50
2018-12-15T20:18:00.818Z,102328.09
2018-12-15T20:21:03.997Z,102318.25
2018-12-15T20:24:07.224Z,102309.61
2018-12-15T20:27:10.475Z,102306.91
2018-12-15T20:30:13.824Z,102303.08
2018-12-15T20:33:17.136Z,102289.72
2018-12-15T20:36:22.167Z,102281.23
2018-12-15T20:39:25.456Z,102282.89
2018-12-15T20:42:28.728Z,102282.89
2018-12-15T20:45:31.963Z,102282.17
2018-12-15T20:48:35.238Z,102277.27
2018-12-15T20:51:42.659Z,102273.80
2018-12-15T20:54:43.746Z,102273.14
2018-12-15T20:57:47.040Z,102267.97
2018-12-15T21:00:50.264Z,102261.73
2018-12-15T21:03:53.724Z,102255.41
2018-12-15T21:06:57.122Z,102250.13
2018-12-15T21:10:00.848Z,102238.98
2018-12-15T21:13:04.210Z,102234.70
2018-12-15T21:16:07.672Z,102226.37
2018-12-15T21:19:10.876Z,102221.69
2018-12-15T21:22:14.175Z,102223.20
2018-12-15T21:25:17.406Z,102217.72
2018-12-15T21:28:20.724Z,102214.65
2018-12-15T21:31:24.031Z,102193.88
2018-12-15T21:34:27.216Z,102189.56
2018-12-15T21:37:31.570Z,102184.18
2018-12-15T21:40:34.829Z,102183.55
2018-12-15T21:43:38.013Z,102177.56
2018-12-15T21:46:41.200Z,102171.80
2018-12-15T21:49:44.378Z,102163.45
2018-12-15T21:52:47.647Z,102156.17
2018-12-15T21:55:51.011Z,102155.80
2018-12-15T21:58:54.318Z,102139.09
2018-12-15T22:01:57.504Z,102129.72
2018-12-15T22:05:00.819Z,102126.88
2018-12-15T22:08:04.095Z,102132.23
2018-12-15T22:11:07.313Z,102118.27
2018-12-15T22:14:11.480Z,102111.00
2018-12-15T22:17:14.772Z,102111.73
2018-12-15T22:20:18.629Z,102097.03
2018-12-15T22:23:22.023Z,102079.22
2018-12-15T22:26:25.193Z,102072.64
2018-12-15T22:29:28.769Z,102070.39
2018-12-15T22:32:31.961Z,102066.25
2018-12-15T22:35:35.239Z,102062.05
2018-12-15T22:38:38.485Z,102053.56
2018-12-15T22:41:42.468Z,102047.80
2018-12-15T22:44:45.660Z,102041.92
2018-12-15T22:47:48.898Z,102030.17
2018-12-15T22:50:52.137Z,102018.48
2018-12-15T22:53:55.359Z,102025.84
2018-12-15T22:56:58.581Z,102016.57
2018-12-15T23:00:01.936Z,102019.57
2018-12-15T23:03:05.321Z,102022.72
2018-12-15T23:06:08.703Z,102020.41
2018-12-15T23:09:11.911Z,102014.11
2018-12-15T23:12:15.158Z,102003.39
2018-12-15T23:15:18.371Z,102005.77
2018-12-15T23:18:21.582Z,101998.56
2018-12-15T23:21:24.948Z,101986.58
2018-12-15T23:24:28.146Z,101990.89
2018-12-15T23:27:31.542Z,101977.82
2018-12-15T23:30:34.836Z,101975.05
2018-12-15T23:33:38.305Z,101981.86
2018-12-15T23:36:41.580Z,101975.20
2018-12-15T23:39:44.756Z,101969.64
2018-12-15T23:42:48.041Z,101965.47
2018-12-15T23:45:51.209Z,101962.68
2018-12-15T23:48:54.411Z,101961.33
2018-12-15T23:51:58.451Z,101956.20
2018-12-15T23:55:01.755Z,101950.38
2018-12-15T23:58:04.941Z,101947.22
